Lowell Highlands, MA

10 Minute Time Series

04-06-2020 05:50 PM

TimeTempHumidityDewpointBarometerWindSpeedWindGustWind DirRain
12:10 AM47.3°F82%42.1°F29.943 inHg0 mph0 mph N/A (N/A)0.00 in
12:20 AM47.1°F82%41.9°F29.945 inHg0 mph0 mph N/A (N/A)0.00 in
12:30 AM46.9°F83%42.0°F29.945 inHg0 mph0 mph N/A (N/A)0.00 in
12:40 AM46.7°F83%41.8°F29.943 inHg0 mph0 mph N/A (N/A)0.00 in
12:50 AM46.5°F84%41.9°F29.943 inHg0 mph0 mph N/A (N/A)0.00 in
01:00 AM46.3°F84%41.7°F29.942 inHg0 mph0 mph N/A (N/A)0.00 in
01:10 AM46.1°F85%41.8°F29.942 inHg0 mph0 mph N/A (N/A)0.00 in
01:20 AM46.1°F86%42.1°F29.944 inHg0 mph1 mph N/A (N/A)0.00 in
01:30 AM46.2°F87%42.5°F29.946 inHg0 mph4 mph N/A (N/A)0.00 in
01:40 AM46.4°F87%42.7°F29.947 inHg1 mph4 mph315° (NW)0.00 in
01:50 AM46.8°F88%43.4°F29.947 inHg2 mph5 mph338° (NNW)0.00 in
02:00 AM47.0°F87%43.3°F29.944 inHg1 mph3 mph315° (NW)0.00 in
02:10 AM47.0°F87%43.3°F29.944 inHg1 mph2 mph315° (NW)0.00 in
02:20 AM47.0°F87%43.3°F29.947 inHg1 mph3 mph315° (NW)0.00 in
02:30 AM47.0°F87%43.3°F29.947 inHg2 mph5 mph315° (NW)0.00 in
02:40 AM47.0°F85%42.7°F29.945 inHg2 mph6 mph338° (NNW)0.00 in
02:50 AM47.0°F84%42.4°F29.947 inHg2 mph5 mph338° (NNW)0.00 in
03:00 AM47.0°F83%42.1°F29.949 inHg2 mph4 mph338° (NNW)0.00 in
03:10 AM46.8°F82%41.6°F29.950 inHg2 mph4 mph315° (NW)0.00 in
03:20 AM46.7°F82%41.5°F29.953 inHg1 mph3 mph315° (NW)0.00 in
03:30 AM46.4°F82%41.2°F29.952 inHg1 mph3 mph315° (NW)0.00 in
03:40 AM46.0°F83%41.1°F29.955 inHg1 mph2 mph315° (NW)0.00 in
03:50 AM45.5°F83%40.6°F29.958 inHg2 mph5 mph315° (NW)0.00 in
04:00 AM45.0°F84%40.5°F29.954 inHg1 mph3 mph315° (NW)0.00 in
04:10 AM44.8°F85%40.6°F29.958 inHg0 mph2 mph N/A (N/A)0.00 in
04:20 AM44.5°F86%40.6°F29.959 inHg0 mph1 mph N/A (N/A)0.00 in
04:30 AM44.3°F87%40.7°F29.961 inHg0 mph0 mph N/A (N/A)0.00 in
04:40 AM44.0°F88%40.7°F29.960 inHg0 mph0 mph N/A (N/A)0.00 in
04:50 AM43.5°F88%40.2°F29.963 inHg1 mph3 mph315° (NW)0.00 in
05:00 AM43.1°F88%39.8°F29.965 inHg1 mph4 mph315° (NW)0.00 in
05:10 AM42.8°F88%39.5°F29.968 inHg0 mph3 mph N/A (N/A)0.00 in
05:20 AM42.5°F88%39.2°F29.972 inHg0 mph0 mph N/A (N/A)0.00 in
05:30 AM42.1°F88%38.8°F29.974 inHg0 mph0 mph N/A (N/A)0.00 in
05:40 AM41.7°F88%38.4°F29.977 inHg0 mph0 mph N/A (N/A)0.00 in
05:50 AM41.3°F88%38.0°F29.979 inHg1 mph3 mph315° (NW)0.00 in
06:00 AM41.1°F88%37.8°F29.981 inHg1 mph4 mph315° (NW)0.00 in
06:10 AM40.9°F88%37.6°F29.983 inHg2 mph5 mph315° (NW)0.00 in
06:20 AM41.0°F87%37.4°F29.987 inHg2 mph4 mph315° (NW)0.00 in
06:30 AM40.9°F86%37.0°F29.990 inHg2 mph4 mph292° (WNW)0.00 in
06:40 AM40.9°F84%36.4°F29.995 inHg1 mph3 mph292° (WNW)0.00 in
06:50 AM40.6°F84%36.2°F29.999 inHg1 mph2 mph292° (WNW)0.00 in
07:00 AM40.6°F84%36.2°F30.001 inHg2 mph5 mph315° (NW)0.00 in
07:10 AM40.8°F82%35.7°F30.005 inHg1 mph3 mph315° (NW)0.00 in
07:20 AM41.2°F81%35.8°F30.008 inHg1 mph4 mph0° (N)0.00 in
07:30 AM41.7°F79%35.7°F30.012 inHg2 mph5 mph315° (NW)0.00 in
07:40 AM42.4°F77%35.7°F30.012 inHg2 mph5 mph315° (NW)0.00 in
07:50 AM43.0°F76%36.0°F30.014 inHg2 mph5 mph315° (NW)0.00 in
08:00 AM43.8°F74%36.1°F30.017 inHg3 mph7 mph338° (NNW)0.00 in
08:10 AM44.6°F72%36.1°F30.015 inHg3 mph7 mph315° (NW)0.00 in
08:20 AM45.2°F71%36.4°F30.015 inHg4 mph10 mph338° (NNW)0.00 in
08:30 AM45.8°F70%36.6°F30.009 inHg5 mph15 mph338° (NNW)0.00 in
08:40 AM46.4°F68%36.4°F30.010 inHg3 mph15 mph338° (NNW)0.00 in
08:50 AM46.8°F64%35.3°F30.010 inHg6 mph13 mph338° (NNW)0.00 in
09:00 AM47.0°F61%34.3°F30.008 inHg7 mph14 mph315° (NW)0.00 in
09:10 AM47.5°F62%35.1°F30.008 inHg4 mph10 mph315° (NW)0.00 in
09:20 AM48.1°F58%34.0°F30.007 inHg6 mph10 mph338° (NNW)0.00 in
09:30 AM48.4°F53%32.1°F30.008 inHg6 mph10 mph315° (NW)0.00 in
09:40 AM48.8°F52%32.0°F30.012 inHg7 mph14 mph315° (NW)0.00 in
09:50 AM49.0°F51%31.7°F30.009 inHg7 mph13 mph338° (NNW)0.00 in
10:00 AM49.4°F50%31.5°F30.003 inHg6 mph14 mph338° (NNW)0.00 in
10:10 AM50.0°F49%31.6°F30.009 inHg6 mph14 mph338° (NNW)0.00 in
10:20 AM50.8°F47%31.3°F30.008 inHg6 mph12 mph338° (NNW)0.00 in
10:30 AM51.4°F48%32.4°F30.005 inHg4 mph8 mph338° (NNW)0.00 in
10:40 AM51.9°F46%31.8°F30.004 inHg5 mph11 mph22° (NNE)0.00 in
10:50 AM52.0°F47%32.4°F30.003 inHg4 mph10 mph338° (NNW)0.00 in
11:00 AM52.4°F43%30.6°F30.000 inHg5 mph11 mph315° (NW)0.00 in
11:10 AM53.0°F42%30.5°F30.001 inHg5 mph9 mph248° (WSW)0.00 in
11:20 AM52.8°F40%29.2°F29.996 inHg6 mph11 mph315° (NW)0.00 in
11:30 AM53.5°F38%28.5°F29.991 inHg5 mph10 mph315° (NW)0.00 in
11:40 AM54.3°F37%28.6°F29.987 inHg4 mph10 mph270° (W)0.00 in
11:50 AM55.1°F36%28.6°F29.983 inHg4 mph10 mph270° (W)0.00 in
12:00 PM55.0°F34%27.2°F29.981 inHg5 mph12 mph315° (NW)0.00 in
12:10 PM55.0°F33%26.4°F29.973 inHg4 mph10 mph338° (NNW)0.00 in
12:20 PM55.8°F34%27.9°F29.973 inHg4 mph9 mph338° (NNW)0.00 in
12:30 PM56.4°F32%26.9°F29.972 inHg5 mph10 mph292° (WNW)0.00 in
12:40 PM56.4°F32%26.9°F29.965 inHg4 mph10 mph315° (NW)0.00 in
12:50 PM56.7°F32%27.2°F29.958 inHg4 mph9 mph338° (NNW)0.00 in
01:00 PM57.0°F31%26.7°F29.950 inHg5 mph11 mph0° (N)0.00 in
01:10 PM58.0°F29%25.9°F29.943 inHg4 mph9 mph315° (NW)0.00 in
01:20 PM59.3°F28%26.2°F29.937 inHg3 mph7 mph292° (WNW)0.00 in
01:30 PM59.3°F26%24.4°F29.931 inHg3 mph8 mph0° (N)0.00 in
01:40 PM58.7°F26%23.9°F29.927 inHg5 mph11 mph338° (NNW)0.00 in
01:50 PM58.8°F26%24.0°F29.926 inHg5 mph11 mph338° (NNW)0.00 in
02:00 PM59.0°F24%22.3°F29.920 inHg6 mph14 mph338° (NNW)0.00 in
02:10 PM59.7°F24%22.9°F29.917 inHg4 mph10 mph292° (WNW)0.00 in
02:20 PM60.4°F23%22.4°F29.911 inHg3 mph7 mph338° (NNW)0.00 in
02:30 PM61.1°F24%24.0°F29.903 inHg4 mph13 mph338° (NNW)0.00 in
02:40 PM61.0°F22%21.9°F29.897 inHg5 mph13 mph315° (NW)0.00 in
02:50 PM61.1°F20%19.7°F29.889 inHg4 mph8 mph292° (WNW)0.00 in
03:00 PM60.7°F17%15.6°F29.884 inHg8 mph13 mph315° (NW)0.00 in
03:10 PM61.1°F18%17.3°F29.879 inHg5 mph14 mph338° (NNW)0.00 in
03:20 PM61.0°F18%17.2°F29.874 inHg6 mph14 mph338° (NNW)0.00 in
03:30 PM60.9°F18%17.1°F29.869 inHg7 mph13 mph315° (NW)0.00 in
03:40 PM61.3°F18%17.5°F29.866 inHg5 mph11 mph270° (W)0.00 in
03:50 PM61.4°F17%16.2°F29.860 inHg6 mph11 mph315° (NW)0.00 in
04:00 PM61.3°F17%16.1°F29.863 inHg7 mph18 mph292° (WNW)0.00 in
04:10 PM61.3°F16%14.7°F29.864 inHg6 mph13 mph315° (NW)0.00 in
04:20 PM61.0°F15%13.0°F29.866 inHg7 mph15 mph292° (WNW)0.00 in
04:30 PM60.4°F15%12.6°F29.863 inHg8 mph15 mph315° (NW)0.00 in
04:40 PM60.5°F16%14.1°F29.861 inHg5 mph12 mph315° (NW)0.00 in
04:50 PM60.2°F16%13.9°F29.860 inHg7 mph14 mph338° (NNW)0.00 in
05:00 PM60.5°F17%15.5°F29.859 inHg5 mph10 mph292° (WNW)0.00 in
05:10 PM60.4°F17%15.4°F29.863 inHg6 mph13 mph315° (NW)0.00 in
05:20 PM60.0°F18%16.4°F29.859 inHg4 mph10 mph292° (WNW)0.00 in
05:30 PM59.9°F18%16.3°F29.862 inHg6 mph14 mph315° (NW)0.00 in
05:40 PM59.6°F19%17.3°F29.863 inHg6 mph12 mph315° (NW)0.00 in
05:50 PM59.5°F18%16.0°F29.864 inHg6 mph13 mph315° (NW)0.00 in